sensor_id;sensor_type;location;lat;lon;timestamp;P1;durP1;ratioP1;P2;durP2;ratioP2
15814;SDS011;8008;50.024;8.172;2024-02-16T04:01:01;4.93;;;3.10;;
15814;SDS011;8008;50.024;8.172;2024-02-16T04:03:29;5.18;;;2.95;;
15814;SDS011;8008;50.024;8.172;2024-02-16T04:05:58;5.88;;;3.45;;
15814;SDS011;8008;50.024;8.172;2024-02-16T04:08:27;6.22;;;3.42;;
15814;SDS011;8008;50.024;8.172;2024-02-16T04:10:55;5.93;;;3.17;;
15814;SDS011;8008;50.024;8.172;2024-02-16T04:13:25;5.13;;;3.00;;
15814;SDS011;8008;50.024;8.172;2024-02-16T04:15:53;4.30;;;3.28;;
15814;SDS011;8008;50.024;8.172;2024-02-16T04:18:23;5.65;;;3.25;;
15814;SDS011;8008;50.024;8.172;2024-02-16T04:20:51;6.35;;;3.40;;
15814;SDS011;8008;50.024;8.172;2024-02-16T04:23:19;7.80;;;3.40;;
15814;SDS011;8008;50.024;8.172;2024-02-16T04:25:47;6.07;;;3.47;;
15814;SDS011;8008;50.024;8.172;2024-02-16T04:28:14;4.68;;;3.25;;
15814;SDS011;8008;50.024;8.172;2024-02-16T04:30:45;5.63;;;3.55;;
15814;SDS011;8008;50.024;8.172;2024-02-16T04:33:13;6.97;;;3.70;;
15814;SDS011;8008;50.024;8.172;2024-02-16T04:35:42;6.10;;;3.65;;
15814;SDS011;8008;50.024;8.172;2024-02-16T04:38:12;6.03;;;3.80;;
15814;SDS011;8008;50.024;8.172;2024-02-16T04:40:40;7.25;;;3.70;;
15814;SDS011;8008;50.024;8.172;2024-02-16T04:43:08;7.60;;;4.32;;
15814;SDS011;8008;50.024;8.172;2024-02-16T04:45:36;8.27;;;4.22;;
15814;SDS011;8008;50.024;8.172;2024-02-16T04:48:05;6.68;;;3.80;;
15814;SDS011;8008;50.024;8.172;2024-02-16T04:50:33;6.00;;;3.58;;
15814;SDS011;8008;50.024;8.172;2024-02-16T04:53:03;6.28;;;3.67;;
15814;SDS011;8008;50.024;8.172;2024-02-16T04:55:31;5.80;;;3.65;;
15814;SDS011;8008;50.024;8.172;2024-02-16T04:58:00;5.90;;;3.70;;
15814;SDS011;8008;50.024;8.172;2024-02-16T05:00:31;6.53;;;3.80;;
15814;SDS011;8008;50.024;8.172;2024-02-16T05:02:59;7.68;;;3.85;;
15814;SDS011;8008;50.024;8.172;2024-02-16T05:05:27;6.55;;;3.78;;
15814;SDS011;8008;50.024;8.172;2024-02-16T05:07:55;6.82;;;3.83;;
15814;SDS011;8008;50.024;8.172;2024-02-16T05:10:25;6.90;;;3.97;;
15814;SDS011;8008;50.024;8.172;2024-02-16T05:12:53;6.63;;;3.85;;
15814;SDS011;8008;50.024;8.172;2024-02-16T05:15:20;7.95;;;3.97;;
15814;SDS011;8008;50.024;8.172;2024-02-16T05:17:49;5.68;;;3.42;;
15814;SDS011;8008;50.024;8.172;2024-02-16T05:20:17;6.47;;;3.95;;
15814;SDS011;8008;50.024;8.172;2024-02-16T05:22:46;5.72;;;3.53;;
15814;SDS011;8008;50.024;8.172;2024-02-16T05:25:16;6.10;;;3.58;;
15814;SDS011;8008;50.024;8.172;2024-02-16T05:27:46;7.18;;;3.72;;
15814;SDS011;8008;50.024;8.172;2024-02-16T05:30:14;7.30;;;3.92;;
15814;SDS011;8008;50.024;8.172;2024-02-16T05:32:43;8.63;;;3.70;;
15814;SDS011;8008;50.024;8.172;2024-02-16T05:35:12;5.90;;;3.83;;
15814;SDS011;8008;50.024;8.172;2024-02-16T05:37:42;6.05;;;3.60;;
15814;SDS011;8008;50.024;8.172;2024-02-16T05:40:14;6.18;;;3.78;;
15814;SDS011;8008;50.024;8.172;2024-02-16T05:42:53;7.65;;;3.58;;
15814;SDS011;8008;50.024;8.172;2024-02-16T05:45:24;7.78;;;4.20;;
15814;SDS011;8008;50.024;8.172;2024-02-16T05:47:53;5.75;;;3.88;;
15814;SDS011;8008;50.024;8.172;2024-02-16T05:50:21;6.35;;;3.53;;
15814;SDS011;8008;50.024;8.172;2024-02-16T05:52:50;9.32;;;3.85;;
15814;SDS011;8008;50.024;8.172;2024-02-16T05:55:18;5.65;;;3.78;;
15814;SDS011;8008;50.024;8.172;2024-02-16T05:57:46;7.38;;;3.70;;
15814;SDS011;8008;50.024;8.172;2024-02-16T06:00:16;6.75;;;3.70;;
15814;SDS011;8008;50.024;8.172;2024-02-16T06:02:47;7.97;;;3.60;;
15814;SDS011;8008;50.024;8.172;2024-02-16T06:05:16;7.55;;;3.67;;
15814;SDS011;8008;50.024;8.172;2024-02-16T06:07:46;8.43;;;4.13;;
15814;SDS011;8008;50.024;8.172;2024-02-16T06:10:14;6.15;;;3.90;;
15814;SDS011;8008;50.024;8.172;2024-02-16T06:12:42;5.80;;;3.90;;
15814;SDS011;8008;50.024;8.172;2024-02-16T06:15:10;7.70;;;4.03;;
15814;SDS011;8008;50.024;8.172;2024-02-16T06:17:39;6.80;;;4.13;;
15814;SDS011;8008;50.024;8.172;2024-02-16T06:20:08;7.05;;;3.92;;
15814;SDS011;8008;50.024;8.172;2024-02-16T06:22:37;7.57;;;4.00;;
15814;SDS011;8008;50.024;8.172;2024-02-16T06:25:05;6.25;;;4.32;;
15814;SDS011;8008;50.024;8.172;2024-02-16T06:27:34;6.90;;;3.78;;
15814;SDS011;8008;50.024;8.172;2024-02-16T06:30:02;5.57;;;3.63;;
15814;SDS011;8008;50.024;8.172;2024-02-16T06:32:31;7.18;;;3.75;;
15814;SDS011;8008;50.024;8.172;2024-02-16T06:35:00;6.72;;;4.28;;
15814;SDS011;8008;50.024;8.172;2024-02-16T06:37:28;6.15;;;3.67;;
15814;SDS011;8008;50.024;8.172;2024-02-16T06:39:58;5.47;;;3.70;;
15814;SDS011;8008;50.024;8.172;2024-02-16T06:42:26;6.88;;;4.03;;
15814;SDS011;8008;50.024;8.172;2024-02-16T06:44:54;6.90;;;4.10;;
15814;SDS011;8008;50.024;8.172;2024-02-16T06:47:22;6.07;;;4.10;;
15814;SDS011;8008;50.024;8.172;2024-02-16T06:49:53;7.35;;;4.00;;
15814;SDS011;8008;50.024;8.172;2024-02-16T06:52:21;7.07;;;4.30;;
15814;SDS011;8008;50.024;8.172;2024-02-16T06:54:49;8.20;;;4.13;;
15814;SDS011;8008;50.024;8.172;2024-02-16T06:57:18;8.25;;;4.38;;
15814;SDS011;8008;50.024;8.172;2024-02-16T06:59:46;10.40;;;5.38;;
15814;SDS011;8008;50.024;8.172;2024-02-16T07:02:14;8.57;;;4.68;;
15814;SDS011;8008;50.024;8.172;2024-02-16T07:04:44;8.10;;;4.60;;
15814;SDS011;8008;50.024;8.172;2024-02-16T07:07:12;7.28;;;4.85;;
15814;SDS011;8008;50.024;8.172;2024-02-16T07:09:42;9.57;;;5.00;;
15814;SDS011;8008;50.024;8.172;2024-02-16T07:12:11;7.07;;;4.63;;
15814;SDS011;8008;50.024;8.172;2024-02-16T07:14:39;6.80;;;4.97;;
15814;SDS011;8008;50.024;8.172;2024-02-16T07:17:07;9.30;;;4.82;;
15814;SDS011;8008;50.024;8.172;2024-02-16T07:19:36;8.15;;;5.15;;
15814;SDS011;8008;50.024;8.172;2024-02-16T07:22:04;7.68;;;5.00;;
15814;SDS011;8008;50.024;8.172;2024-02-16T07:24:33;10.63;;;5.00;;
15814;SDS011;8008;50.024;8.172;2024-02-16T07:27:03;9.30;;;4.80;;
15814;SDS011;8008;50.024;8.172;2024-02-16T07:29:31;9.95;;;4.57;;
15814;SDS011;8008;50.024;8.172;2024-02-16T07:32:00;7.78;;;4.60;;
15814;SDS011;8008;50.024;8.172;2024-02-16T07:34:29;6.72;;;4.32;;
15814;SDS011;8008;50.024;8.172;2024-02-16T07:36:58;10.40;;;4.72;;
15814;SDS011;8008;50.024;8.172;2024-02-16T07:39:26;7.72;;;4.25;;
15814;SDS011;8008;50.024;8.172;2024-02-16T07:41:55;9.10;;;4.63;;
15814;SDS011;8008;50.024;8.172;2024-02-16T07:44:25;6.80;;;4.20;;
15814;SDS011;8008;50.024;8.172;2024-02-16T07:46:55;8.77;;;4.20;;
15814;SDS011;8008;50.024;8.172;2024-02-16T07:49:23;7.03;;;4.53;;
15814;SDS011;8008;50.024;8.172;2024-02-16T07:51:51;6.45;;;4.40;;
15814;SDS011;8008;50.024;8.172;2024-02-16T07:54:19;9.65;;;4.53;;
15814;SDS011;8008;50.024;8.172;2024-02-16T07:56:47;6.93;;;4.65;;
15814;SDS011;8008;50.024;8.172;2024-02-16T07:59:18;7.60;;;4.55;;
15814;SDS011;8008;50.024;8.172;2024-02-16T08:01:47;8.23;;;4.28;;
15814;SDS011;8008;50.024;8.172;2024-02-16T08:04:15;6.57;;;4.35;;
15814;SDS011;8008;50.024;8.172;2024-02-16T08:06:43;7.10;;;4.60;;
15814;SDS011;8008;50.024;8.172;2024-02-16T08:09:11;10.02;;;4.72;;
15814;SDS011;8008;50.024;8.172;2024-02-16T08:11:40;8.93;;;5.35;;
15814;SDS011;8008;50.024;8.172;2024-02-16T08:14:08;8.05;;;4.90;;
15814;SDS011;8008;50.024;8.172;2024-02-16T08:16:37;8.60;;;5.20;;
15814;SDS011;8008;50.024;8.172;2024-02-16T08:19:06;7.90;;;5.05;;
15814;SDS011;8008;50.024;8.172;2024-02-16T08:21:34;9.85;;;5.43;;
15814;SDS011;8008;50.024;8.172;2024-02-16T08:24:02;8.57;;;5.55;;
15814;SDS011;8008;50.024;8.172;2024-02-16T08:26:31;12.05;;;5.40;;
15814;SDS011;8008;50.024;8.172;2024-02-16T08:28:59;9.27;;;4.60;;
15814;SDS011;8008;50.024;8.172;2024-02-16T08:31:27;8.68;;;5.32;;
15814;SDS011;8008;50.024;8.172;2024-02-16T08:33:55;8.13;;;4.97;;
15814;SDS011;8008;50.024;8.172;2024-02-16T08:36:24;9.82;;;5.38;;
15814;SDS011;8008;50.024;8.172;2024-02-16T08:38:55;7.95;;;5.30;;
15814;SDS011;8008;50.024;8.172;2024-02-16T08:41:23;6.47;;;5.03;;
15814;SDS011;8008;50.024;8.172;2024-02-16T08:43:51;9.68;;;5.07;;
15814;SDS011;8008;50.024;8.172;2024-02-16T08:46:19;6.75;;;5.15;;
15814;SDS011;8008;50.024;8.172;2024-02-16T08:48:48;10.13;;;5.63;;
15814;SDS011;8008;50.024;8.172;2024-02-16T08:51:17;13.90;;;5.70;;
15814;SDS011;8008;50.024;8.172;2024-02-16T08:53:46;9.77;;;5.25;;
15814;SDS011;8008;50.024;8.172;2024-02-16T08:56:14;9.80;;;5.30;;
15814;SDS011;8008;50.024;8.172;2024-02-16T08:58:42;8.15;;;5.50;;
15814;SDS011;8008;50.024;8.172;2024-02-16T09:01:10;9.75;;;5.30;;
15814;SDS011;8008;50.024;8.172;2024-02-16T09:03:38;6.93;;;5.07;;
15814;SDS011;8008;50.024;8.172;2024-02-16T09:06:07;8.38;;;4.95;;
15814;SDS011;8008;50.024;8.172;2024-02-16T09:08:35;9.32;;;5.65;;
15814;SDS011;8008;50.024;8.172;2024-02-16T09:11:05;7.10;;;5.20;;
15814;SDS011;8008;50.024;8.172;2024-02-16T09:13:33;9.85;;;5.38;;
15814;SDS011;8008;50.024;8.172;2024-02-16T09:16:06;9.10;;;5.53;;
15814;SDS011;8008;50.024;8.172;2024-02-16T09:18:34;12.27;;;6.00;;
15814;SDS011;8008;50.024;8.172;2024-02-16T09:21:03;9.73;;;5.53;;
15814;SDS011;8008;50.024;8.172;2024-02-16T09:23:32;10.63;;;5.35;;
15814;SDS011;8008;50.024;8.172;2024-02-16T09:26:00;9.60;;;5.88;;
15814;SDS011;8008;50.024;8.172;2024-02-16T09:28:30;10.80;;;5.55;;
15814;SDS011;8008;50.024;8.172;2024-02-16T09:30:59;7.78;;;5.75;;
15814;SDS011;8008;50.024;8.172;2024-02-16T09:33:27;7.80;;;5.75;;
15814;SDS011;8008;50.024;8.172;2024-02-16T09:35:55;9.13;;;6.40;;
15814;SDS011;8008;50.024;8.172;2024-02-16T09:38:23;8.70;;;6.05;;
15814;SDS011;8008;50.024;8.172;2024-02-16T09:40:51;10.38;;;5.90;;
15814;SDS011;8008;50.024;8.172;2024-02-16T09:43:26;8.30;;;5.82;;
15814;SDS011;8008;50.024;8.172;2024-02-16T09:45:56;10.15;;;6.60;;
15814;SDS011;8008;50.024;8.172;2024-02-16T09:48:26;8.38;;;5.63;;
15814;SDS011;8008;50.024;8.172;2024-02-16T09:50:56;11.07;;;6.47;;
15814;SDS011;8008;50.024;8.172;2024-02-16T09:53:26;13.10;;;6.78;;
15814;SDS011;8008;50.024;8.172;2024-02-16T09:55:55;10.43;;;6.80;;
15814;SDS011;8008;50.024;8.172;2024-02-16T09:58:23;10.82;;;6.57;;
15814;SDS011;8008;50.024;8.172;2024-02-16T10:00:51;12.57;;;6.68;;
15814;SDS011;8008;50.024;8.172;2024-02-16T10:03:23;12.10;;;6.68;;
15814;SDS011;8008;50.024;8.172;2024-02-16T10:05:52;9.18;;;6.80;;
15814;SDS011;8008;50.024;8.172;2024-02-16T10:08:31;10.15;;;6.32;;
15814;SDS011;8008;50.024;8.172;2024-02-16T10:11:02;11.82;;;6.93;;
15814;SDS011;8008;50.024;8.172;2024-02-16T10:13:30;9.63;;;6.47;;
15814;SDS011;8008;50.024;8.172;2024-02-16T10:16:05;9.38;;;6.55;;
15814;SDS011;8008;50.024;8.172;2024-02-16T10:18:36;7.95;;;5.88;;
15814;SDS011;8008;50.024;8.172;2024-02-16T10:21:05;12.55;;;6.35;;
15814;SDS011;8008;50.024;8.172;2024-02-16T10:23:35;10.93;;;6.40;;
15814;SDS011;8008;50.024;8.172;2024-02-16T10:26:06;10.05;;;6.05;;
15814;SDS011;8008;50.024;8.172;2024-02-16T10:28:34;10.98;;;6.28;;
15814;SDS011;8008;50.024;8.172;2024-02-16T10:31:02;7.57;;;6.20;;
15814;SDS011;8008;50.024;8.172;2024-02-16T10:33:31;11.27;;;5.90;;
15814;SDS011;8008;50.024;8.172;2024-02-16T10:36:01;8.43;;;5.97;;
15814;SDS011;8008;50.024;8.172;2024-02-16T10:38:31;8.55;;;6.03;;
15814;SDS011;8008;50.024;8.172;2024-02-16T10:41:00;10.32;;;6.00;;
15814;SDS011;8008;50.024;8.172;2024-02-16T10:43:29;9.70;;;5.82;;
15814;SDS011;8008;50.024;8.172;2024-02-16T10:45:58;8.48;;;5.90;;
15814;SDS011;8008;50.024;8.172;2024-02-16T10:48:27;6.60;;;5.55;;
15814;SDS011;8008;50.024;8.172;2024-02-16T10:50:55;8.15;;;5.38;;
15814;SDS011;8008;50.024;8.172;2024-02-16T10:53:26;8.82;;;5.57;;
15814;SDS011;8008;50.024;8.172;2024-02-16T10:55:57;8.32;;;6.20;;
15814;SDS011;8008;50.024;8.172;2024-02-16T10:58:26;11.57;;;6.25;;
15814;SDS011;8008;50.024;8.172;2024-02-16T11:00:56;12.38;;;6.90;;
15814;SDS011;8008;50.024;8.172;2024-02-16T11:03:25;12.30;;;6.75;;
15814;SDS011;8008;50.024;8.172;2024-02-16T11:05:54;11.35;;;6.35;;
15814;SDS011;8008;50.024;8.172;2024-02-16T11:08:26;8.65;;;6.07;;
15814;SDS011;8008;50.024;8.172;2024-02-16T11:10:58;6.90;;;5.20;;
15814;SDS011;8008;50.024;8.172;2024-02-16T11:13:31;10.10;;;5.43;;
15814;SDS011;8008;50.024;8.172;2024-02-16T11:16:01;7.35;;;5.15;;
15814;SDS011;8008;50.024;8.172;2024-02-16T11:18:31;8.25;;;4.63;;
15814;SDS011;8008;50.024;8.172;2024-02-16T11:21:04;5.82;;;4.65;;
15814;SDS011;8008;50.024;8.172;2024-02-16T11:23:35;7.65;;;4.55;;
15814;SDS011;8008;50.024;8.172;2024-02-16T11:26:04;8.60;;;5.70;;
15814;SDS011;8008;50.024;8.172;2024-02-16T11:28:35;8.98;;;4.55;;
15814;SDS011;8008;50.024;8.172;2024-02-16T11:31:03;8.30;;;4.70;;
15814;SDS011;8008;50.024;8.172;2024-02-16T11:33:33;7.13;;;4.90;;
15814;SDS011;8008;50.024;8.172;2024-02-16T11:36:02;7.55;;;4.82;;
15814;SDS011;8008;50.024;8.172;2024-02-16T11:38:36;9.55;;;4.35;;
15814;SDS011;8008;50.024;8.172;2024-02-16T11:41:04;5.82;;;4.45;;
15814;SDS011;8008;50.024;8.172;2024-02-16T11:43:34;7.10;;;4.30;;
15814;SDS011;8008;50.024;8.172;2024-02-16T11:46:11;6.80;;;4.03;;
15814;SDS011;8008;50.024;8.172;2024-02-16T11:48:40;5.07;;;4.10;;
15814;SDS011;8008;50.024;8.172;2024-02-16T11:51:09;6.35;;;3.97;;
15814;SDS011;8008;50.024;8.172;2024-02-16T11:53:38;5.93;;;3.97;;
15814;SDS011;8008;50.024;8.172;2024-02-16T11:56:07;4.78;;;3.65;;
15814;SDS011;8008;50.024;8.172;2024-02-16T11:58:35;5.78;;;4.28;;
15814;SDS011;8008;50.024;8.172;2024-02-16T12:01:04;6.30;;;3.90;;
15814;SDS011;8008;50.024;8.172;2024-02-16T12:03:40;5.25;;;4.00;;
15814;SDS011;8008;50.024;8.172;2024-02-16T12:06:08;6.78;;;4.07;;
15814;SDS011;8008;50.024;8.172;2024-02-16T12:08:49;8.63;;;4.28;;
15814;SDS011;8008;50.024;8.172;2024-02-16T12:11:18;8.40;;;5.00;;
15814;SDS011;8008;50.024;8.172;2024-02-16T12:13:47;6.70;;;5.03;;
15814;SDS011;8008;50.024;8.172;2024-02-16T12:16:15;5.90;;;4.53;;
15814;SDS011;8008;50.024;8.172;2024-02-16T12:18:46;6.45;;;5.00;;
15814;SDS011;8008;50.024;8.172;2024-02-16T12:21:17;10.82;;;4.70;;
15814;SDS011;8008;50.024;8.172;2024-02-16T12:23:47;6.90;;;4.60;;
15814;SDS011;8008;50.024;8.172;2024-02-16T12:26:15;7.55;;;4.70;;
15814;SDS011;8008;50.024;8.172;2024-02-16T12:28:43;7.55;;;4.63;;
15814;SDS011;8008;50.024;8.172;2024-02-16T12:31:17;7.75;;;4.97;;
15814;SDS011;8008;50.024;8.172;2024-02-16T12:33:46;8.27;;;5.22;;
15814;SDS011;8008;50.024;8.172;2024-02-16T12:36:14;6.38;;;5.07;;
15814;SDS011;8008;50.024;8.172;2024-02-16T12:38:43;9.68;;;5.10;;
15814;SDS011;8008;50.024;8.172;2024-02-16T12:41:13;9.77;;;5.20;;
15814;SDS011;8008;50.024;8.172;2024-02-16T12:43:41;9.40;;;5.18;;
15814;SDS011;8008;50.024;8.172;2024-02-16T12:46:09;8.20;;;5.47;;
15814;SDS011;8008;50.024;8.172;2024-02-16T12:48:37;9.52;;;5.70;;
15814;SDS011;8008;50.024;8.172;2024-02-16T12:51:05;9.50;;;5.90;;
15814;SDS011;8008;50.024;8.172;2024-02-16T12:53:33;8.00;;;5.57;;
15814;SDS011;8008;50.024;8.172;2024-02-16T12:56:06;8.57;;;5.70;;
15814;SDS011;8008;50.024;8.172;2024-02-16T12:58:36;11.32;;;5.63;;
15814;SDS011;8008;50.024;8.172;2024-02-16T13:01:12;8.23;;;5.63;;
15814;SDS011;8008;50.024;8.172;2024-02-16T13:03:51;10.93;;;5.57;;
15814;SDS011;8008;50.024;8.172;2024-02-16T13:06:19;10.30;;;5.25;;
15814;SDS011;8008;50.024;8.172;2024-02-16T13:08:53;7.78;;;5.38;;
15814;SDS011;8008;50.024;8.172;2024-02-16T13:11:21;8.77;;;4.80;;
15814;SDS011;8008;50.024;8.172;2024-02-16T13:13:49;7.72;;;5.00;;
15814;SDS011;8008;50.024;8.172;2024-02-16T13:16:19;9.73;;;5.60;;
15814;SDS011;8008;50.024;8.172;2024-02-16T13:18:48;6.72;;;5.03;;
15814;SDS011;8008;50.024;8.172;2024-02-16T13:21:16;8.00;;;5.28;;
15814;SDS011;8008;50.024;8.172;2024-02-16T13:23:44;7.63;;;5.35;;
15814;SDS011;8008;50.024;8.172;2024-02-16T13:26:12;7.40;;;4.93;;
15814;SDS011;8008;50.024;8.172;2024-02-16T13:28:40;9.85;;;5.50;;
15814;SDS011;8008;50.024;8.172;2024-02-16T13:31:08;6.75;;;4.53;;
15814;SDS011;8008;50.024;8.172;2024-02-16T13:33:39;9.27;;;5.22;;
15814;SDS011;8008;50.024;8.172;2024-02-16T13:36:07;8.10;;;4.88;;
15814;SDS011;8008;50.024;8.172;2024-02-16T13:38:36;7.75;;;4.90;;
15814;SDS011;8008;50.024;8.172;2024-02-16T13:41:04;7.30;;;4.80;;
15814;SDS011;8008;50.024;8.172;2024-02-16T13:43:32;6.60;;;4.43;;
15814;SDS011;8008;50.024;8.172;2024-02-16T13:46:00;6.72;;;4.68;;
15814;SDS011;8008;50.024;8.172;2024-02-16T13:48:28;6.50;;;4.35;;
15814;SDS011;8008;50.024;8.172;2024-02-16T13:50:58;7.53;;;4.47;;
15814;SDS011;8008;50.024;8.172;2024-02-16T13:53:27;8.38;;;4.72;;
15814;SDS011;8008;50.024;8.172;2024-02-16T13:55:55;6.50;;;4.22;;
15814;SDS011;8008;50.024;8.172;2024-02-16T13:58:27;5.90;;;4.30;;
15814;SDS011;8008;50.024;8.172;2024-02-16T14:00:55;8.52;;;5.03;;
15814;SDS011;8008;50.024;8.172;2024-02-16T14:03:23;7.95;;;4.20;;
15814;SDS011;8008;50.024;8.172;2024-02-16T14:05:51;7.15;;;4.20;;
15814;SDS011;8008;50.024;8.172;2024-02-16T14:08:21;8.43;;;4.60;;
15814;SDS011;8008;50.024;8.172;2024-02-16T14:10:49;8.18;;;5.18;;
15814;SDS011;8008;50.024;8.172;2024-02-16T14:13:17;6.75;;;4.57;;
15814;SDS011;8008;50.024;8.172;2024-02-16T14:15:44;9.60;;;4.60;;
15814;SDS011;8008;50.024;8.172;2024-02-16T14:18:12;6.78;;;4.43;;
15814;SDS011;8008;50.024;8.172;2024-02-16T14:20:55;8.70;;;4.32;;
15814;SDS011;8008;50.024;8.172;2024-02-16T14:23:24;9.27;;;4.40;;
15814;SDS011;8008;50.024;8.172;2024-02-16T14:25:52;5.57;;;4.20;;
15814;SDS011;8008;50.024;8.172;2024-02-16T14:28:20;7.95;;;4.43;;
15814;SDS011;8008;50.024;8.172;2024-02-16T14:30:48;7.22;;;4.20;;
15814;SDS011;8008;50.024;8.172;2024-02-16T14:33:16;7.03;;;4.22;;
15814;SDS011;8008;50.024;8.172;2024-02-16T14:35:57;7.25;;;4.60;;
15814;SDS011;8008;50.024;8.172;2024-02-16T14:38:26;6.40;;;4.07;;
15814;SDS011;8008;50.024;8.172;2024-02-16T14:40:55;6.00;;;4.00;;
15814;SDS011;8008;50.024;8.172;2024-02-16T14:43:23;10.50;;;4.20;;
15814;SDS011;8008;50.024;8.172;2024-02-16T14:45:51;7.63;;;4.68;;
15814;SDS011;8008;50.024;8.172;2024-02-16T14:48:19;9.23;;;4.85;;
15814;SDS011;8008;50.024;8.172;2024-02-16T14:50:47;6.78;;;3.90;;
15814;SDS011;8008;50.024;8.172;2024-02-16T14:53:16;5.43;;;3.88;;
15814;SDS011;8008;50.024;8.172;2024-02-16T14:55:45;6.45;;;4.47;;
15814;SDS011;8008;50.024;8.172;2024-02-16T14:58:14;10.43;;;4.63;;
15814;SDS011;8008;50.024;8.172;2024-02-16T15:00:41;6.53;;;4.13;;
15814;SDS011;8008;50.024;8.172;2024-02-16T15:03:10;6.32;;;3.83;;
15814;SDS011;8008;50.024;8.172;2024-02-16T15:05:38;6.03;;;4.00;;
15814;SDS011;8008;50.024;8.172;2024-02-16T15:08:06;7.95;;;3.58;;
15814;SDS011;8008;50.024;8.172;2024-02-16T15:10:35;3.85;;;3.28;;
15814;SDS011;8008;50.024;8.172;2024-02-16T15:13:04;5.30;;;3.10;;
15814;SDS011;8008;50.024;8.172;2024-02-16T15:15:32;5.95;;;3.15;;
15814;SDS011;8008;50.024;8.172;2024-02-16T15:18:01;5.05;;;3.30;;
15814;SDS011;8008;50.024;8.172;2024-02-16T15:20:31;3.78;;;2.35;;
15814;SDS011;8008;50.024;8.172;2024-02-16T15:22:59;4.93;;;2.85;;
15814;SDS011;8008;50.024;8.172;2024-02-16T15:25:27;5.15;;;2.70;;
15814;SDS011;8008;50.024;8.172;2024-02-16T15:27:55;7.22;;;2.78;;
15814;SDS011;8008;50.024;8.172;2024-02-16T15:30:26;5.13;;;2.90;;
15814;SDS011;8008;50.024;8.172;2024-02-16T15:32:54;4.32;;;2.70;;
15814;SDS011;8008;50.024;8.172;2024-02-16T15:35:23;5.20;;;2.60;;
15814;SDS011;8008;50.024;8.172;2024-02-16T15:37:51;5.15;;;2.80;;
15814;SDS011;8008;50.024;8.172;2024-02-16T15:40:19;6.35;;;2.80;;
15814;SDS011;8008;50.024;8.172;2024-02-16T15:42:58;5.95;;;2.58;;
15814;SDS011;8008;50.024;8.172;2024-02-16T15:45:27;4.93;;;2.80;;
15814;SDS011;8008;50.024;8.172;2024-02-16T15:47:55;5.57;;;2.88;;
15814;SDS011;8008;50.024;8.172;2024-02-16T15:50:24;6.13;;;3.40;;
15814;SDS011;8008;50.024;8.172;2024-02-16T15:52:53;4.93;;;3.25;;
15814;SDS011;8008;50.024;8.172;2024-02-16T15:55:21;7.97;;;2.88;;
15814;SDS011;8008;50.024;8.172;2024-02-16T15:57:48;6.28;;;2.60;;
15814;SDS011;8008;50.024;8.172;2024-02-16T16:00:17;4.88;;;2.60;;
15814;SDS011;8008;50.024;8.172;2024-02-16T16:02:47;3.95;;;2.22;;
15814;SDS011;8008;50.024;8.172;2024-02-16T16:05:15;4.35;;;2.28;;
15814;SDS011;8008;50.024;8.172;2024-02-16T16:07:43;4.20;;;2.35;;
15814;SDS011;8008;50.024;8.172;2024-02-16T16:10:12;3.72;;;2.50;;
15814;SDS011;8008;50.024;8.172;2024-02-16T16:12:43;3.28;;;2.50;;
15814;SDS011;8008;50.024;8.172;2024-02-16T16:15:11;3.15;;;2.28;;
15814;SDS011;8008;50.024;8.172;2024-02-16T16:17:40;4.82;;;2.65;;
15814;SDS011;8008;50.024;8.172;2024-02-16T16:20:10;7.30;;;3.97;;
15814;SDS011;8008;50.024;8.172;2024-02-16T16:22:39;6.45;;;3.22;;
15814;SDS011;8008;50.024;8.172;2024-02-16T16:25:07;7.30;;;4.82;;
15814;SDS011;8008;50.024;8.172;2024-02-16T16:27:35;13.73;;;7.55;;
15814;SDS011;8008;50.024;8.172;2024-02-16T16:30:04;8.23;;;5.97;;
15814;SDS011;8008;50.024;8.172;2024-02-16T16:32:33;5.93;;;4.00;;
15814;SDS011;8008;50.024;8.172;2024-02-16T16:35:01;4.95;;;2.90;;
15814;SDS011;8008;50.024;8.172;2024-02-16T16:37:31;4.18;;;2.70;;
15814;SDS011;8008;50.024;8.172;2024-02-16T16:39:59;5.25;;;3.00;;
15814;SDS011;8008;50.024;8.172;2024-02-16T16:42:26;4.95;;;2.50;;
15814;SDS011;8008;50.024;8.172;2024-02-16T16:44:55;5.93;;;2.70;;
15814;SDS011;8008;50.024;8.172;2024-02-16T16:47:23;4.20;;;2.47;;
15814;SDS011;8008;50.024;8.172;2024-02-16T16:49:52;3.72;;;2.60;;
15814;SDS011;8008;50.024;8.172;2024-02-16T16:52:20;3.63;;;2.70;;
15814;SDS011;8008;50.024;8.172;2024-02-16T16:54:50;3.38;;;2.70;;
15814;SDS011;8008;50.024;8.172;2024-02-16T16:57:18;6.10;;;3.40;;
15814;SDS011;8008;50.024;8.172;2024-02-16T16:59:47;5.50;;;2.75;;
15814;SDS011;8008;50.024;8.172;2024-02-16T17:02:15;13.20;;;7.15;;
15814;SDS011;8008;50.024;8.172;2024-02-16T17:04:43;8.80;;;3.70;;
15814;SDS011;8008;50.024;8.172;2024-02-16T17:07:12;7.07;;;3.53;;
15814;SDS011;8008;50.024;8.172;2024-02-16T17:09:44;6.30;;;3.17;;
15814;SDS011;8008;50.024;8.172;2024-02-16T17:12:13;6.15;;;3.17;;
15814;SDS011;8008;50.024;8.172;2024-02-16T17:14:42;7.15;;;3.28;;
15814;SDS011;8008;50.024;8.172;2024-02-16T17:17:10;7.55;;;2.90;;
15814;SDS011;8008;50.024;8.172;2024-02-16T17:19:38;10.65;;;3.10;;
15814;SDS011;8008;50.024;8.172;2024-02-16T17:22:06;7.30;;;3.45;;
15814;SDS011;8008;50.024;8.172;2024-02-16T17:24:34;6.30;;;3.60;;
15814;SDS011;8008;50.024;8.172;2024-02-16T17:27:02;8.75;;;4.00;;
15814;SDS011;8008;50.024;8.172;2024-02-16T17:29:32;5.85;;;4.10;;
15814;SDS011;8008;50.024;8.172;2024-02-16T17:32:00;9.95;;;4.35;;
15814;SDS011;8008;50.024;8.172;2024-02-16T17:34:29;10.40;;;4.82;;
15814;SDS011;8008;50.024;8.172;2024-02-16T17:36:58;8.95;;;4.47;;
15814;SDS011;8008;50.024;8.172;2024-02-16T17:39:26;5.93;;;4.35;;
15814;SDS011;8008;50.024;8.172;2024-02-16T17:41:54;9.63;;;5.50;;
15814;SDS011;8008;50.024;8.172;2024-02-16T17:44:23;8.50;;;5.00;;
15814;SDS011;8008;50.024;8.172;2024-02-16T17:46:53;8.25;;;5.13;;
15814;SDS011;8008;50.024;8.172;2024-02-16T17:49:20;8.30;;;5.05;;
15814;SDS011;8008;50.024;8.172;2024-02-16T17:51:53;7.68;;;4.55;;
15814;SDS011;8008;50.024;8.172;2024-02-16T17:54:21;7.00;;;4.13;;
15814;SDS011;8008;50.024;8.172;2024-02-16T17:56:49;5.63;;;4.10;;
15814;SDS011;8008;50.024;8.172;2024-02-16T17:59:17;6.03;;;3.38;;
15814;SDS011;8008;50.024;8.172;2024-02-16T18:01:45;5.10;;;3.10;;
15814;SDS011;8008;50.024;8.172;2024-02-16T18:04:14;3.63;;;3.00;;
15814;SDS011;8008;50.024;8.172;2024-02-16T18:06:42;5.32;;;2.97;;
15814;SDS011;8008;50.024;8.172;2024-02-16T18:09:11;5.43;;;3.63;;
15814;SDS011;8008;50.024;8.172;2024-02-16T18:11:39;6.20;;;3.08;;
15814;SDS011;8008;50.024;8.172;2024-02-16T18:14:06;7.43;;;4.93;;
15814;SDS011;8008;50.024;8.172;2024-02-16T18:16:35;11.07;;;5.53;;
15814;SDS011;8008;50.024;8.172;2024-02-16T18:19:03;8.73;;;5.07;;
15814;SDS011;8008;50.024;8.172;2024-02-16T18:21:33;6.55;;;4.07;;
15814;SDS011;8008;50.024;8.172;2024-02-16T18:24:01;8.60;;;4.70;;
15814;SDS011;8008;50.024;8.172;2024-02-16T18:26:30;8.38;;;4.40;;
15814;SDS011;8008;50.024;8.172;2024-02-16T18:29:00;5.78;;;4.05;;
15814;SDS011;8008;50.024;8.172;2024-02-16T18:31:28;8.05;;;4.13;;
15814;SDS011;8008;50.024;8.172;2024-02-16T18:33:57;5.38;;;3.55;;
15814;SDS011;8008;50.024;8.172;2024-02-16T18:36:25;9.70;;;4.05;;
15814;SDS011;8008;50.024;8.172;2024-02-16T18:38:58;8.02;;;4.00;;
15814;SDS011;8008;50.024;8.172;2024-02-16T18:41:26;6.13;;;3.80;;
15814;SDS011;8008;50.024;8.172;2024-02-16T18:43:54;4.95;;;3.80;;
15814;SDS011;8008;50.024;8.172;2024-02-16T18:46:21;8.63;;;4.32;;
15814;SDS011;8008;50.024;8.172;2024-02-16T18:48:49;5.50;;;3.95;;
15814;SDS011;8008;50.024;8.172;2024-02-16T18:51:18;6.22;;;4.05;;
15814;SDS011;8008;50.024;8.172;2024-02-16T18:53:46;9.65;;;4.85;;
15814;SDS011;8008;50.024;8.172;2024-02-16T18:56:15;11.00;;;5.70;;
15814;SDS011;8008;50.024;8.172;2024-02-16T18:58:44;10.80;;;6.00;;
15814;SDS011;8008;50.024;8.172;2024-02-16T19:01:12;9.50;;;6.40;;
15814;SDS011;8008;50.024;8.172;2024-02-16T19:03:44;9.80;;;5.75;;
15814;SDS011;8008;50.024;8.172;2024-02-16T19:06:12;10.93;;;6.47;;
15814;SDS011;8008;50.024;8.172;2024-02-16T19:08:41;11.07;;;6.20;;
15814;SDS011;8008;50.024;8.172;2024-02-16T19:11:09;12.25;;;6.55;;